sensor_id;sensor_type;location;lat;lon;timestamp;temperature;humidity
36594;DHT22;22603;47.900;8.146;2022-10-22T00:02:33;10.70;99.90
36594;DHT22;22603;47.900;8.146;2022-10-22T00:05:20;10.60;99.90
36594;DHT22;22603;47.900;8.146;2022-10-22T00:08:09;10.70;99.90
36594;DHT22;22603;47.900;8.146;2022-10-22T00:10:57;10.70;99.90
36594;DHT22;22603;47.900;8.146;2022-10-22T00:13:44;10.60;99.90
36594;DHT22;22603;47.900;8.146;2022-10-22T00:16:36;10.60;99.90
36594;DHT22;22603;47.900;8.146;2022-10-22T00:19:23;10.60;99.90
36594;DHT22;22603;47.900;8.146;2022-10-22T00:22:11;10.50;99.90
36594;DHT22;22603;47.900;8.146;2022-10-22T00:24:59;10.60;99.90
36594;DHT22;22603;47.900;8.146;2022-10-22T00:27:46;10.50;99.90
36594;DHT22;22603;47.900;8.146;2022-10-22T00:30:33;10.50;99.90
36594;DHT22;22603;47.900;8.146;2022-10-22T00:33:19;10.50;99.90
36594;DHT22;22603;47.900;8.146;2022-10-22T00:36:07;10.50;99.90
36594;DHT22;22603;47.900;8.146;2022-10-22T00:38:54;10.50;99.90
36594;DHT22;22603;47.900;8.146;2022-10-22T00:41:43;10.40;99.90
36594;DHT22;22603;47.900;8.146;2022-10-22T00:45:00;10.50;99.90
36594;DHT22;22603;47.900;8.146;2022-10-22T00:47:52;10.50;99.90
36594;DHT22;22603;47.900;8.146;2022-10-22T00:50:43;10.50;99.90
36594;DHT22;22603;47.900;8.146;2022-10-22T00:53:33;10.50;99.90
36594;DHT22;22603;47.900;8.146;2022-10-22T00:56:21;10.50;99.90
36594;DHT22;22603;47.900;8.146;2022-10-22T00:59:11;10.50;99.90
36594;DHT22;22603;47.900;8.146;2022-10-22T01:01:59;10.50;99.90
36594;DHT22;22603;47.900;8.146;2022-10-22T01:04:46;10.50;99.90
36594;DHT22;22603;47.900;8.146;2022-10-22T01:07:42;10.50;99.90
36594;DHT22;22603;47.900;8.146;2022-10-22T01:10:41;10.50;99.90
36594;DHT22;22603;47.900;8.146;2022-10-22T01:13:38;10.50;99.90
36594;DHT22;22603;47.900;8.146;2022-10-22T01:16:35;10.50;99.90
36594;DHT22;22603;47.900;8.146;2022-10-22T01:19:35;10.50;99.90
36594;DHT22;22603;47.900;8.146;2022-10-22T01:22:29;10.50;99.90
36594;DHT22;22603;47.900;8.146;2022-10-22T01:25:23;10.50;99.90
36594;DHT22;22603;47.900;8.146;2022-10-22T01:28:17;10.50;99.90
36594;DHT22;22603;47.900;8.146;2022-10-22T01:31:11;10.60;99.90
36594;DHT22;22603;47.900;8.146;2022-10-22T01:33:59;10.60;99.90
36594;DHT22;22603;47.900;8.146;2022-10-22T01:36:47;10.50;99.90
36594;DHT22;22603;47.900;8.146;2022-10-22T01:39:36;10.60;99.90
36594;DHT22;22603;47.900;8.146;2022-10-22T01:42:24;10.60;99.90
36594;DHT22;22603;47.900;8.146;2022-10-22T01:45:11;10.50;99.90
36594;DHT22;22603;47.900;8.146;2022-10-22T01:48:07;10.50;99.90
36594;DHT22;22603;47.900;8.146;2022-10-22T01:51:15;10.50;99.90
36594;DHT22;22603;47.900;8.146;2022-10-22T01:54:15;10.50;99.90
36594;DHT22;22603;47.900;8.146;2022-10-22T01:57:13;10.50;99.90
36594;DHT22;22603;47.900;8.146;2022-10-22T02:00:06;10.50;99.90
36594;DHT22;22603;47.900;8.146;2022-10-22T02:02:58;10.50;99.90
36594;DHT22;22603;47.900;8.146;2022-10-22T02:05:52;10.50;99.90
36594;DHT22;22603;47.900;8.146;2022-10-22T02:08:42;10.50;99.90
36594;DHT22;22603;47.900;8.146;2022-10-22T02:11:30;10.50;99.90
36594;DHT22;22603;47.900;8.146;2022-10-22T02:14:18;10.50;99.90
36594;DHT22;22603;47.900;8.146;2022-10-22T02:17:09;10.60;99.90
36594;DHT22;22603;47.900;8.146;2022-10-22T02:20:00;10.60;99.90
36594;DHT22;22603;47.900;8.146;2022-10-22T02:22:50;10.60;99.90
36594;DHT22;22603;47.900;8.146;2022-10-22T02:25:41;10.60;99.90
36594;DHT22;22603;47.900;8.146;2022-10-22T02:28:35;10.60;99.90
36594;DHT22;22603;47.900;8.146;2022-10-22T02:31:26;10.60;99.90
36594;DHT22;22603;47.900;8.146;2022-10-22T02:34:18;10.60;99.90
36594;DHT22;22603;47.900;8.146;2022-10-22T02:37:07;10.60;99.90
36594;DHT22;22603;47.900;8.146;2022-10-22T02:39:56;10.60;99.90
36594;DHT22;22603;47.900;8.146;2022-10-22T02:42:44;10.60;99.90
36594;DHT22;22603;47.900;8.146;2022-10-22T02:45:32;10.70;99.90
36594;DHT22;22603;47.900;8.146;2022-10-22T02:48:20;10.60;99.90
36594;DHT22;22603;47.900;8.146;2022-10-22T02:51:07;10.70;99.90
36594;DHT22;22603;47.900;8.146;2022-10-22T02:53:54;10.70;99.90
36594;DHT22;22603;47.900;8.146;2022-10-22T02:56:42;10.70;99.90
36594;DHT22;22603;47.900;8.146;2022-10-22T02:59:28;10.70;99.90
36594;DHT22;22603;47.900;8.146;2022-10-22T03:02:16;10.60;99.90
36594;DHT22;22603;47.900;8.146;2022-10-22T03:05:03;10.60;99.90
36594;DHT22;22603;47.900;8.146;2022-10-22T03:07:50;10.60;99.90
36594;DHT22;22603;47.900;8.146;2022-10-22T03:10:37;10.60;99.90
36594;DHT22;22603;47.900;8.146;2022-10-22T03:13:25;10.70;99.90
36594;DHT22;22603;47.900;8.146;2022-10-22T03:16:12;10.70;99.90
36594;DHT22;22603;47.900;8.146;2022-10-22T03:18:59;10.70;99.90
36594;DHT22;22603;47.900;8.146;2022-10-22T03:21:49;10.70;99.90
36594;DHT22;22603;47.900;8.146;2022-10-22T03:24:38;10.70;99.90
36594;DHT22;22603;47.900;8.146;2022-10-22T03:27:27;10.70;99.90
36594;DHT22;22603;47.900;8.146;2022-10-22T03:30:16;10.70;99.90
36594;DHT22;22603;47.900;8.146;2022-10-22T03:33:03;10.70;99.90
36594;DHT22;22603;47.900;8.146;2022-10-22T03:35:50;10.70;99.90
36594;DHT22;22603;47.900;8.146;2022-10-22T03:38:38;10.80;99.90
36594;DHT22;22603;47.900;8.146;2022-10-22T03:41:25;10.70;99.90
36594;DHT22;22603;47.900;8.146;2022-10-22T03:44:14;10.80;99.90
36594;DHT22;22603;47.900;8.146;2022-10-22T03:47:04;10.80;99.90
36594;DHT22;22603;47.900;8.146;2022-10-22T03:49:54;10.80;99.90
36594;DHT22;22603;47.900;8.146;2022-10-22T03:52:44;10.80;99.90
36594;DHT22;22603;47.900;8.146;2022-10-22T03:55:30;10.80;99.90
36594;DHT22;22603;47.900;8.146;2022-10-22T03:58:17;10.80;99.90
36594;DHT22;22603;47.900;8.146;2022-10-22T04:01:04;10.80;99.90
36594;DHT22;22603;47.900;8.146;2022-10-22T04:03:53;10.80;99.90
36594;DHT22;22603;47.900;8.146;2022-10-22T04:06:40;10.70;99.90
36594;DHT22;22603;47.900;8.146;2022-10-22T04:09:26;10.70;99.90
36594;DHT22;22603;47.900;8.146;2022-10-22T04:12:16;10.60;99.90
36594;DHT22;22603;47.900;8.146;2022-10-22T04:15:03;10.50;99.90
36594;DHT22;22603;47.900;8.146;2022-10-22T04:17:50;10.50;99.90
36594;DHT22;22603;47.900;8.146;2022-10-22T04:20:40;10.50;99.90
36594;DHT22;22603;47.900;8.146;2022-10-22T04:23:27;10.50;99.90
36594;DHT22;22603;47.900;8.146;2022-10-22T04:26:15;10.50;99.90
36594;DHT22;22603;47.900;8.146;2022-10-22T04:29:02;10.40;99.90
36594;DHT22;22603;47.900;8.146;2022-10-22T04:31:49;10.50;99.90
36594;DHT22;22603;47.900;8.146;2022-10-22T04:34:35;10.40;99.90
36594;DHT22;22603;47.900;8.146;2022-10-22T04:37:23;10.40;99.90
36594;DHT22;22603;47.900;8.146;2022-10-22T04:40:11;10.30;99.90
36594;DHT22;22603;47.900;8.146;2022-10-22T04:42:58;10.30;99.90
36594;DHT22;22603;47.900;8.146;2022-10-22T04:45:45;10.30;99.90
36594;DHT22;22603;47.900;8.146;2022-10-22T04:48:32;10.30;99.90
36594;DHT22;22603;47.900;8.146;2022-10-22T04:51:21;10.20;99.90
36594;DHT22;22603;47.900;8.146;2022-10-22T04:54:09;10.20;99.90
36594;DHT22;22603;47.900;8.146;2022-10-22T04:56:56;10.20;99.90
36594;DHT22;22603;47.900;8.146;2022-10-22T04:59:43;10.20;99.90
36594;DHT22;22603;47.900;8.146;2022-10-22T05:02:30;10.20;99.90
36594;DHT22;22603;47.900;8.146;2022-10-22T05:05:17;10.20;99.90
36594;DHT22;22603;47.900;8.146;2022-10-22T05:08:04;10.10;99.90
36594;DHT22;22603;47.900;8.146;2022-10-22T05:10:52;10.10;99.90
36594;DHT22;22603;47.900;8.146;2022-10-22T05:13:39;10.00;99.90
36594;DHT22;22603;47.900;8.146;2022-10-22T05:16:27;10.00;99.90
36594;DHT22;22603;47.900;8.146;2022-10-22T05:19:16;10.00;99.90
36594;DHT22;22603;47.900;8.146;2022-10-22T05:22:04;10.00;99.90
36594;DHT22;22603;47.900;8.146;2022-10-22T05:24:51;9.90;99.90
36594;DHT22;22603;47.900;8.146;2022-10-22T05:27:39;9.90;99.90
36594;DHT22;22603;47.900;8.146;2022-10-22T05:30:27;10.00;99.90
36594;DHT22;22603;47.900;8.146;2022-10-22T05:33:14;10.00;99.90
36594;DHT22;22603;47.900;8.146;2022-10-22T05:36:09;10.00;99.90
36594;DHT22;22603;47.900;8.146;2022-10-22T05:38:58;10.10;99.90
36594;DHT22;22603;47.900;8.146;2022-10-22T05:41:44;10.10;99.90
36594;DHT22;22603;47.900;8.146;2022-10-22T05:44:33;10.00;99.90
36594;DHT22;22603;47.900;8.146;2022-10-22T05:47:20;10.00;99.90
36594;DHT22;22603;47.900;8.146;2022-10-22T05:50:07;9.90;99.90
36594;DHT22;22603;47.900;8.146;2022-10-22T05:52:54;9.90;99.90
36594;DHT22;22603;47.900;8.146;2022-10-22T05:55:41;9.90;99.90
36594;DHT22;22603;47.900;8.146;2022-10-22T05:58:28;9.90;99.90
36594;DHT22;22603;47.900;8.146;2022-10-22T06:01:18;9.90;99.90
36594;DHT22;22603;47.900;8.146;2022-10-22T06:04:09;9.90;99.90
36594;DHT22;22603;47.900;8.146;2022-10-22T06:06:56;9.90;99.90
36594;DHT22;22603;47.900;8.146;2022-10-22T06:09:44;9.90;99.90
36594;DHT22;22603;47.900;8.146;2022-10-22T06:12:32;9.90;99.90
36594;DHT22;22603;47.900;8.146;2022-10-22T06:15:19;9.90;99.90
36594;DHT22;22603;47.900;8.146;2022-10-22T06:18:08;10.00;99.90
36594;DHT22;22603;47.900;8.146;2022-10-22T06:20:55;9.90;99.90
36594;DHT22;22603;47.900;8.146;2022-10-22T06:23:42;10.00;99.90
36594;DHT22;22603;47.900;8.146;2022-10-22T06:26:30;10.00;99.90
36594;DHT22;22603;47.900;8.146;2022-10-22T06:29:17;10.00;99.90
36594;DHT22;22603;47.900;8.146;2022-10-22T06:32:04;10.00;99.90
36594;DHT22;22603;47.900;8.146;2022-10-22T06:34:52;10.00;99.90
36594;DHT22;22603;47.900;8.146;2022-10-22T06:37:47;10.10;99.90
36594;DHT22;22603;47.900;8.146;2022-10-22T06:40:34;10.20;99.90
36594;DHT22;22603;47.900;8.146;2022-10-22T06:43:21;10.20;99.90
36594;DHT22;22603;47.900;8.146;2022-10-22T06:46:08;10.20;99.90
36594;DHT22;22603;47.900;8.146;2022-10-22T06:49:02;10.30;99.90
36594;DHT22;22603;47.900;8.146;2022-10-22T06:51:52;10.30;99.90
36594;DHT22;22603;47.900;8.146;2022-10-22T06:54:40;10.20;99.90
36594;DHT22;22603;47.900;8.146;2022-10-22T06:57:26;10.20;99.90
36594;DHT22;22603;47.900;8.146;2022-10-22T07:00:13;10.30;99.90
36594;DHT22;22603;47.900;8.146;2022-10-22T07:03:00;10.30;99.90
36594;DHT22;22603;47.900;8.146;2022-10-22T07:05:47;10.30;99.90
36594;DHT22;22603;47.900;8.146;2022-10-22T07:08:37;10.30;99.90
36594;DHT22;22603;47.900;8.146;2022-10-22T07:11:26;10.30;99.90
36594;DHT22;22603;47.900;8.146;2022-10-22T07:14:15;10.30;99.90
36594;DHT22;22603;47.900;8.146;2022-10-22T07:17:01;10.40;99.90
36594;DHT22;22603;47.900;8.146;2022-10-22T07:19:48;10.50;99.90
36594;DHT22;22603;47.900;8.146;2022-10-22T07:22:36;10.50;99.90
36594;DHT22;22603;47.900;8.146;2022-10-22T07:25:25;10.50;99.90
36594;DHT22;22603;47.900;8.146;2022-10-22T07:28:12;10.80;99.90
36594;DHT22;22603;47.900;8.146;2022-10-22T07:30:59;10.90;99.90
36594;DHT22;22603;47.900;8.146;2022-10-22T07:33:46;11.40;99.90
36594;DHT22;22603;47.900;8.146;2022-10-22T07:36:33;12.10;99.90
36594;DHT22;22603;47.900;8.146;2022-10-22T07:39:20;12.70;99.90
36594;DHT22;22603;47.900;8.146;2022-10-22T07:42:08;13.20;99.90
36594;DHT22;22603;47.900;8.146;2022-10-22T07:44:56;13.60;99.90
36594;DHT22;22603;47.900;8.146;2022-10-22T07:47:43;14.40;99.90
36594;DHT22;22603;47.900;8.146;2022-10-22T07:50:32;15.00;99.90
36594;DHT22;22603;47.900;8.146;2022-10-22T07:53:19;15.50;99.90
36594;DHT22;22603;47.900;8.146;2022-10-22T07:56:06;16.20;99.90
36594;DHT22;22603;47.900;8.146;2022-10-22T07:58:55;16.50;99.90
36594;DHT22;22603;47.900;8.146;2022-10-22T08:01:42;16.80;99.90
36594;DHT22;22603;47.900;8.146;2022-10-22T08:04:29;16.80;99.90
36594;DHT22;22603;47.900;8.146;2022-10-22T08:07:17;17.00;99.90
36594;DHT22;22603;47.900;8.146;2022-10-22T08:10:05;17.20;99.90
36594;DHT22;22603;47.900;8.146;2022-10-22T08:12:53;16.80;99.90
36594;DHT22;22603;47.900;8.146;2022-10-22T08:15:42;17.30;99.90
36594;DHT22;22603;47.900;8.146;2022-10-22T08:18:31;17.40;99.90
36594;DHT22;22603;47.900;8.146;2022-10-22T08:21:18;18.20;99.90
36594;DHT22;22603;47.900;8.146;2022-10-22T08:24:06;18.10;99.90
36594;DHT22;22603;47.900;8.146;2022-10-22T08:26:54;19.20;99.90
36594;DHT22;22603;47.900;8.146;2022-10-22T08:29:41;18.70;99.90
36594;DHT22;22603;47.900;8.146;2022-10-22T08:32:29;18.50;99.90
36594;DHT22;22603;47.900;8.146;2022-10-22T08:35:17;18.50;99.90
36594;DHT22;22603;47.900;8.146;2022-10-22T08:38:04;18.90;99.90
36594;DHT22;22603;47.900;8.146;2022-10-22T08:40:53;19.70;99.90
36594;DHT22;22603;47.900;8.146;2022-10-22T08:44:14;20.00;99.90
36594;DHT22;22603;47.900;8.146;2022-10-22T08:47:21;21.00;99.90
36594;DHT22;22603;47.900;8.146;2022-10-22T08:50:18;19.90;99.90
36594;DHT22;22603;47.900;8.146;2022-10-22T08:53:13;20.70;99.90
36594;DHT22;22603;47.900;8.146;2022-10-22T08:56:01;20.80;99.90
36594;DHT22;22603;47.900;8.146;2022-10-22T08:58:52;20.40;99.90
36594;DHT22;22603;47.900;8.146;2022-10-22T09:01:45;21.00;99.90
36594;DHT22;22603;47.900;8.146;2022-10-22T09:04:36;20.70;99.90
36594;DHT22;22603;47.900;8.146;2022-10-22T09:07:27;20.20;99.90
36594;DHT22;22603;47.900;8.146;2022-10-22T09:10:14;20.50;99.90
36594;DHT22;22603;47.900;8.146;2022-10-22T09:13:01;19.90;99.90
36594;DHT22;22603;47.900;8.146;2022-10-22T09:15:51;20.60;99.90
36594;DHT22;22603;47.900;8.146;2022-10-22T09:18:43;21.30;99.90
36594;DHT22;22603;47.900;8.146;2022-10-22T09:21:37;21.40;99.90
36594;DHT22;22603;47.900;8.146;2022-10-22T09:24:32;20.50;99.90
36594;DHT22;22603;47.900;8.146;2022-10-22T09:27:27;20.00;99.90
36594;DHT22;22603;47.900;8.146;2022-10-22T09:30:16;19.50;99.90
36594;DHT22;22603;47.900;8.146;2022-10-22T09:33:11;19.80;99.90
36594;DHT22;22603;47.900;8.146;2022-10-22T09:36:00;20.00;99.90
36594;DHT22;22603;47.900;8.146;2022-10-22T09:38:50;19.60;99.90
36594;DHT22;22603;47.900;8.146;2022-10-22T09:41:38;19.90;99.90
36594;DHT22;22603;47.900;8.146;2022-10-22T09:44:25;19.30;99.90
36594;DHT22;22603;47.900;8.146;2022-10-22T09:47:33;20.90;99.90
36594;DHT22;22603;47.900;8.146;2022-10-22T09:50:40;21.40;99.90
36594;DHT22;22603;47.900;8.146;2022-10-22T09:53:29;21.90;99.90
36594;DHT22;22603;47.900;8.146;2022-10-22T09:56:22;22.50;99.90
36594;DHT22;22603;47.900;8.146;2022-10-22T09:59:15;22.90;99.90
36594;DHT22;22603;47.900;8.146;2022-10-22T10:02:10;22.90;99.90
36594;DHT22;22603;47.900;8.146;2022-10-22T10:05:18;22.50;99.90
36594;DHT22;22603;47.900;8.146;2022-10-22T10:08:12;23.30;99.90
36594;DHT22;22603;47.900;8.146;2022-10-22T10:11:03;23.80;99.90
36594;DHT22;22603;47.900;8.146;2022-10-22T10:14:00;23.90;99.90
36594;DHT22;22603;47.900;8.146;2022-10-22T10:16:56;23.20;99.90
36594;DHT22;22603;47.900;8.146;2022-10-22T10:19:57;23.10;99.90
36594;DHT22;22603;47.900;8.146;2022-10-22T10:22:57;22.90;99.90
36594;DHT22;22603;47.900;8.146;2022-10-22T10:25:50;22.60;99.90
36594;DHT22;22603;47.900;8.146;2022-10-22T10:29:03;22.90;99.90
36594;DHT22;22603;47.900;8.146;2022-10-22T10:32:06;22.90;99.90
36594;DHT22;22603;47.900;8.146;2022-10-22T10:35:05;23.80;99.90
36594;DHT22;22603;47.900;8.146;2022-10-22T10:38:12;23.40;99.90
36594;DHT22;22603;47.900;8.146;2022-10-22T10:47:43;23.00;99.90
36594;DHT22;22603;47.900;8.146;2022-10-22T10:50:42;22.80;99.90
36594;DHT22;22603;47.900;8.146;2022-10-22T10:53:46;23.00;99.90
36594;DHT22;22603;47.900;8.146;2022-10-22T10:56:39;23.60;99.90
36594;DHT22;22603;47.900;8.146;2022-10-22T10:59:44;23.40;99.90
36594;DHT22;22603;47.900;8.146;2022-10-22T11:02:52;23.50;99.90
36594;DHT22;22603;47.900;8.146;2022-10-22T11:05:44;23.70;99.90
36594;DHT22;22603;47.900;8.146;2022-10-22T11:08:36;22.00;99.90
36594;DHT22;22603;47.900;8.146;2022-10-22T11:11:30;23.50;99.90
36594;DHT22;22603;47.900;8.146;2022-10-22T11:14:20;23.00;99.90
36594;DHT22;22603;47.900;8.146;2022-10-22T11:17:16;23.00;99.90
36594;DHT22;22603;47.900;8.146;2022-10-22T11:20:13;24.00;99.90
36594;DHT22;22603;47.900;8.146;2022-10-22T11:23:07;23.80;99.90
36594;DHT22;22603;47.900;8.146;2022-10-22T11:26:11;23.40;99.90
36594;DHT22;22603;47.900;8.146;2022-10-22T11:29:20;23.60;99.90
36594;DHT22;22603;47.900;8.146;2022-10-22T11:32:10;23.50;99.90
36594;DHT22;22603;47.900;8.146;2022-10-22T11:35:02;23.20;99.90
36594;DHT22;22603;47.900;8.146;2022-10-22T11:37:54;23.50;99.90
36594;DHT22;22603;47.900;8.146;2022-10-22T11:40:45;22.30;99.90
36594;DHT22;22603;47.900;8.146;2022-10-22T11:43:34;22.00;99.90
36594;DHT22;22603;47.900;8.146;2022-10-22T11:46:44;22.30;99.90
36594;DHT22;22603;47.900;8.146;2022-10-22T11:49:43;22.70;99.90
36594;DHT22;22603;47.900;8.146;2022-10-22T11:52:40;22.90;99.90
36594;DHT22;22603;47.900;8.146;2022-10-22T11:55:42;23.30;99.90
36594;DHT22;22603;47.900;8.146;2022-10-22T11:58:38;23.30;99.90
36594;DHT22;22603;47.900;8.146;2022-10-22T12:01:29;22.90;99.90
36594;DHT22;22603;47.900;8.146;2022-10-22T12:04:39;23.00;99.90
36594;DHT22;22603;47.900;8.146;2022-10-22T12:07:33;22.10;99.90
36594;DHT22;22603;47.900;8.146;2022-10-22T12:10:22;22.20;99.90
36594;DHT22;22603;47.900;8.146;2022-10-22T12:13:17;22.30;99.90
36594;DHT22;22603;47.900;8.146;2022-10-22T12:16:10;22.00;99.90
36594;DHT22;22603;47.900;8.146;2022-10-22T12:19:03;21.70;99.90
36594;DHT22;22603;47.900;8.146;2022-10-22T12:21:52;20.60;99.90
36594;DHT22;22603;47.900;8.146;2022-10-22T12:24:41;20.40;99.90
36594;DHT22;22603;47.900;8.146;2022-10-22T12:27:34;20.20;99.90
36594;DHT22;22603;47.900;8.146;2022-10-22T12:30:26;19.80;99.90
36594;DHT22;22603;47.900;8.146;2022-10-22T12:33:19;19.20;99.90
36594;DHT22;22603;47.900;8.146;2022-10-22T12:36:12;19.00;99.90
36594;DHT22;22603;47.900;8.146;2022-10-22T12:39:00;18.70;99.90
36594;DHT22;22603;47.900;8.146;2022-10-22T12:41:48;18.20;99.90
36594;DHT22;22603;47.900;8.146;2022-10-22T12:44:35;18.10;99.90
36594;DHT22;22603;47.900;8.146;2022-10-22T12:47:24;18.00;99.90
36594;DHT22;22603;47.900;8.146;2022-10-22T12:50:15;18.50;99.90
36594;DHT22;22603;47.900;8.146;2022-10-22T12:53:04;18.70;99.90
36594;DHT22;22603;47.900;8.146;2022-10-22T12:55:53;18.50;99.90
36594;DHT22;22603;47.900;8.146;2022-10-22T12:58:44;18.30;99.90
36594;DHT22;22603;47.900;8.146;2022-10-22T13:01:35;18.40;99.90
36594;DHT22;22603;47.900;8.146;2022-10-22T13:04:32;18.50;99.90
36594;DHT22;22603;47.900;8.146;2022-10-22T13:07:19;18.50;99.90
36594;DHT22;22603;47.900;8.146;2022-10-22T13:10:15;18.70;99.90
36594;DHT22;22603;47.900;8.146;2022-10-22T13:13:03;18.70;99.90
36594;DHT22;22603;47.900;8.146;2022-10-22T13:15:52;18.20;99.90
36594;DHT22;22603;47.900;8.146;2022-10-22T13:18:41;17.50;99.90
36594;DHT22;22603;47.900;8.146;2022-10-22T13:21:33;17.30;99.90
36594;DHT22;22603;47.900;8.146;2022-10-22T13:24:23;17.00;99.90
36594;DHT22;22603;47.900;8.146;2022-10-22T13:27:11;17.20;99.90
36594;DHT22;22603;47.900;8.146;2022-10-22T13:30:02;17.30;99.90
36594;DHT22;22603;47.900;8.146;2022-10-22T13:32:56;17.50;99.90
36594;DHT22;22603;47.900;8.146;2022-10-22T13:35:44;17.60;99.90
36594;DHT22;22603;47.900;8.146;2022-10-22T13:38:32;17.80;99.90
36594;DHT22;22603;47.900;8.146;2022-10-22T13:41:22;18.20;99.90
36594;DHT22;22603;47.900;8.146;2022-10-22T13:44:09;18.20;99.90
36594;DHT22;22603;47.900;8.146;2022-10-22T13:46:55;18.30;99.90
36594;DHT22;22603;47.900;8.146;2022-10-22T13:49:43;18.00;99.90
36594;DHT22;22603;47.900;8.146;2022-10-22T13:52:35;17.60;99.90
36594;DHT22;22603;47.900;8.146;2022-10-22T13:55:28;17.30;99.90
36594;DHT22;22603;47.900;8.146;2022-10-22T13:58:16;17.20;99.90
36594;DHT22;22603;47.900;8.146;2022-10-22T14:01:04;17.10;99.90
36594;DHT22;22603;47.900;8.146;2022-10-22T14:03:55;17.20;99.90
36594;DHT22;22603;47.900;8.146;2022-10-22T14:06:43;17.40;99.90
36594;DHT22;22603;47.900;8.146;2022-10-22T14:09:29;17.30;99.90
36594;DHT22;22603;47.900;8.146;2022-10-22T14:12:18;17.40;99.90
36594;DHT22;22603;47.900;8.146;2022-10-22T14:15:06;17.40;99.90
36594;DHT22;22603;47.900;8.146;2022-10-22T14:17:55;17.30;99.90
36594;DHT22;22603;47.900;8.146;2022-10-22T14:20:42;17.30;99.90
36594;DHT22;22603;47.900;8.146;2022-10-22T14:23:30;17.20;99.90
36594;DHT22;22603;47.900;8.146;2022-10-22T14:26:22;17.00;99.90
36594;DHT22;22603;47.900;8.146;2022-10-22T14:29:11;17.00;99.90
36594;DHT22;22603;47.900;8.146;2022-10-22T14:31:58;17.00;99.90
36594;DHT22;22603;47.900;8.146;2022-10-22T14:34:45;17.00;99.90
36594;DHT22;22603;47.900;8.146;2022-10-22T14:37:32;17.00;99.90
36594;DHT22;22603;47.900;8.146;2022-10-22T14:40:20;16.90;99.90
36594;DHT22;22603;47.900;8.146;2022-10-22T14:43:08;16.90;99.90
36594;DHT22;22603;47.900;8.146;2022-10-22T14:45:57;16.80;99.90
36594;DHT22;22603;47.900;8.146;2022-10-22T14:48:44;16.60;99.90
36594;DHT22;22603;47.900;8.146;2022-10-22T14:51:31;16.50;99.90
36594;DHT22;22603;47.900;8.146;2022-10-22T14:54:18;16.50;99.90
36594;DHT22;22603;47.900;8.146;2022-10-22T14:57:06;16.40;99.90
36594;DHT22;22603;47.900;8.146;2022-10-22T14:59:53;16.20;99.90
36594;DHT22;22603;47.900;8.146;2022-10-22T15:02:41;16.20;99.90
36594;DHT22;22603;47.900;8.146;2022-10-22T15:05:28;16.00;99.90
36594;DHT22;22603;47.900;8.146;2022-10-22T15:08:15;16.00;99.90
36594;DHT22;22603;47.900;8.146;2022-10-22T15:11:04;16.00;99.90
36594;DHT22;22603;47.900;8.146;2022-10-22T15:13:52;16.00;99.90
36594;DHT22;22603;47.900;8.146;2022-10-22T15:16:39;15.90;99.90
36594;DHT22;22603;47.900;8.146;2022-10-22T15:19:28;15.80;99.90
36594;DHT22;22603;47.900;8.146;2022-10-22T15:22:15;15.80;99.90
36594;DHT22;22603;47.900;8.146;2022-10-22T15:25:06;15.80;99.90
36594;DHT22;22603;47.900;8.146;2022-10-22T15:27:53;15.90;99.90
36594;DHT22;22603;47.900;8.146;2022-10-22T15:30:53;16.00;99.90
36594;DHT22;22603;47.900;8.146;2022-10-22T15:33:40;15.90;99.90
36594;DHT22;22603;47.900;8.146;2022-10-22T15:36:28;15.70;99.90
36594;DHT22;22603;47.900;8.146;2022-10-22T15:39:15;15.40;99.90
36594;DHT22;22603;47.900;8.146;2022-10-22T15:42:03;15.10;99.90
36594;DHT22;22603;47.900;8.146;2022-10-22T15:44:56;14.90;99.90
36594;DHT22;22603;47.900;8.146;2022-10-22T15:47:44;14.60;99.90
36594;DHT22;22603;47.900;8.146;2022-10-22T15:50:36;14.40;99.90
36594;DHT22;22603;47.900;8.146;2022-10-22T15:53:25;14.20;99.90
36594;DHT22;22603;47.900;8.146;2022-10-22T15:56:11;14.00;99.90
36594;DHT22;22603;47.900;8.146;2022-10-22T15:59:00;13.90;99.90
36594;DHT22;22603;47.900;8.146;2022-10-22T16:01:48;13.70;99.90
36594;DHT22;22603;47.900;8.146;2022-10-22T16:04:37;13.50;99.90
36594;DHT22;22603;47.900;8.146;2022-10-22T16:07:23;13.40;99.90
36594;DHT22;22603;47.900;8.146;2022-10-22T16:10:11;13.20;99.90
36594;DHT22;22603;47.900;8.146;2022-10-22T16:12:58;13.10;99.90
36594;DHT22;22603;47.900;8.146;2022-10-22T16:15:45;13.10;99.90
36594;DHT22;22603;47.900;8.146;2022-10-22T16:18:32;12.90;99.90
36594;DHT22;22603;47.900;8.146;2022-10-22T16:21:20;12.70;99.90
36594;DHT22;22603;47.900;8.146;2022-10-22T16:24:08;12.70;99.90
36594;DHT22;22603;47.900;8.146;2022-10-22T16:26:56;12.50;99.90
36594;DHT22;22603;47.900;8.146;2022-10-22T16:29:45;12.40;99.90
36594;DHT22;22603;47.900;8.146;2022-10-22T16:32:32;12.30;99.90
36594;DHT22;22603;47.900;8.146;2022-10-22T16:35:19;12.20;99.90
36594;DHT22;22603;47.900;8.146;2022-10-22T16:38:06;12.10;99.90
36594;DHT22;22603;47.900;8.146;2022-10-22T16:41:07;12.10;99.90
36594;DHT22;22603;47.900;8.146;2022-10-22T16:43:55;12.10;99.90
36594;DHT22;22603;47.900;8.146;2022-10-22T16:46:44;12.00;99.90
36594;DHT22;22603;47.900;8.146;2022-10-22T16:49:31;12.00;99.90
36594;DHT22;22603;47.900;8.146;2022-10-22T16:52:19;11.90;99.90
36594;DHT22;22603;47.900;8.146;2022-10-22T16:55:06;11.80;99.90
36594;DHT22;22603;47.900;8.146;2022-10-22T16:57:55;11.80;99.90
36594;DHT22;22603;47.900;8.146;2022-10-22T17:00:44;11.70;99.90
36594;DHT22;22603;47.900;8.146;2022-10-22T17:03:31;11.60;99.90
36594;DHT22;22603;47.900;8.146;2022-10-22T17:06:18;11.60;99.90
36594;DHT22;22603;47.900;8.146;2022-10-22T17:09:05;11.50;99.90
36594;DHT22;22603;47.900;8.146;2022-10-22T17:11:52;11.40;99.90
36594;DHT22;22603;47.900;8.146;2022-10-22T17:14:39;11.30;99.90
36594;DHT22;22603;47.900;8.146;2022-10-22T17:17:27;11.20;99.90
36594;DHT22;22603;47.900;8.146;2022-10-22T17:20:14;11.10;99.90
36594;DHT22;22603;47.900;8.146;2022-10-22T17:23:01;11.10;99.90
36594;DHT22;22603;47.900;8.146;2022-10-22T17:25:48;11.00;99.90
36594;DHT22;22603;47.900;8.146;2022-10-22T17:28:35;10.90;99.90
36594;DHT22;22603;47.900;8.146;2022-10-22T17:31:24;10.80;99.90
36594;DHT22;22603;47.900;8.146;2022-10-22T17:34:15;10.70;99.90
36594;DHT22;22603;47.900;8.146;2022-10-22T17:37:02;10.70;99.90
36594;DHT22;22603;47.900;8.146;2022-10-22T17:39:49;10.70;99.90
36594;DHT22;22603;47.900;8.146;2022-10-22T17:42:36;10.60;99.90
36594;DHT22;22603;47.900;8.146;2022-10-22T17:45:23;10.60;99.90
36594;DHT22;22603;47.900;8.146;2022-10-22T17:48:10;10.50;99.90
36594;DHT22;22603;47.900;8.146;2022-10-22T17:50:58;10.50;99.90
36594;DHT22;22603;47.900;8.146;2022-10-22T17:53:45;10.50;99.90
36594;DHT22;22603;47.900;8.146;2022-10-22T17:56:34;10.50;99.90
36594;DHT22;22603;47.900;8.146;2022-10-22T17:59:22;10.40;99.90
36594;DHT22;22603;47.900;8.146;2022-10-22T18:02:09;10.50;99.90
36594;DHT22;22603;47.900;8.146;2022-10-22T18:05:00;10.40;99.90